Main page
METAR-TAF:

METAR-TAF

Airports :

St. Gallen–Altenrhein Airport

St. Gallen, Switzerland

latitude: 47-29-06N, longitude: 009-33-43E, elevation: 398 m

Current weather observation

The report was made 29 minutes ago, at 14:50 UTC
Wind 7 kt from the West
Temperature 14°C
Humidity 38%
Pressure 1021 hPa
Visibility 10 km or more
no clouds below 1500 m and no cumulonimbus

METAR: LSZR 041450Z AUTO 28007KT CAVOK 14/00 Q1021

Time: 17:19 (15:19 UTC)

Forecast

The report was made 54 minutes ago, at 14:25 UTC
Forecast valid from 04 at 15 UTC to 04 at 24 UTC
Wind 8 kt from the West
Visibility 10 km or more
no clouds below 1500 m and no cumulonimbus

TAF: LSZR 041425Z 0415/0424 27008KT CAVOK

Weather observations and forecasts of more than 4000 airports (METAR and TAF reports).

The available stations are represented by yellow and red dots on the map.

Hover mouse over dot to see the name of the station.

Then click to see weather observations and forecasts.

To change the map : click on the green buttons with a black cross to zoom in, on the green button with a dash to zoom out, or on the green arrows for adjacent maps.


METAR-TAF: